Budapest Bridge — VRIZ5 — position and weather

sailwx.info

Track history (hours):
 
Tides and Currents Weather Stations Pressure Air Temp Water Temp Dewpoint Dewpoint Depression Visibility Wind Speed Wind Dir Waves Ship Positions

Budapest Bridge

Last reported at 2016-May-28 03:33 UTC. Time now 2016-May-28 04:06 UTC.
Position N 34°59' E 139°33'.

Length 268 m; draft 12.2 m.

Type: Cargo ship. MMSI: 477434200.

Date/timePositionNaut miles runAvg speedWind from/ knotsBaromVisibWave heightAir tempDewpointWater temp
2016-May-28 03:33N 34°59' E 139°33'1010.3
2016-May-28 02:34N 34°52' E 139°23'  
2016-May-19 09:32N 01°16' E 104°14'1313.7
2016-May-19 08:33N 01°14' E 104°01'1212.2
2016-May-19 07:34N 01°12' E 103°49'5 5.3
2016-May-19 06:33N 01°17' E 103°46'0 0.0
2016-May-19 05:29N 01°17' E 103°46'0 0.0
2016-May-19 04:29N 01°17' E 103°46'0 0.0
2016-May-19 03:32N 01°17' E 103°46'0 0.0
2016-May-19 02:32N 01°17' E 103°46'0 0.0
2016-May-19 01:29N 01°17' E 103°46'0 0.0
2016-May-19 00:32N 01°17' E 103°46'0 0.0
2016-May-18 23:32N 01°17' E 103°46'0 0.0
2016-May-18 22:32N 01°17' E 103°46'0 0.0
2016-May-18 21:33N 01°17' E 103°46'0 0.0
2016-May-18 20:34N 01°17' E 103°46'0 0.0
2016-May-18 19:33N 01°17' E 103°46'0 0.0
2016-May-18 18:33N 01°17' E 103°46'1 0.8
2016-May-18 17:33N 01°16' E 103°46'7 6.8
2016-May-18 16:33N 01°14' E 103°52'2 1.8
2016-May-18 15:31N 01°16' E 103°51'0 0.0
2016-May-18 14:31N 01°16' E 103°51'0 0.0
2016-May-18 13:31N 01°16' E 103°51'0 0.0
2016-May-18 12:31N 01°16' E 103°51'0 0.0
2016-May-18 11:31N 01°16' E 103°51'0 0.0
2016-May-18 10:31N 01°16' E 103°51'0 0.0
2016-May-18 09:31N 01°16' E 103°51'0 0.0
2016-May-18 08:28N 01°16' E 103°51'0 0.0
2016-May-18 07:25N 01°16' E 103°51'0 0.0
2016-May-18 06:31N 01°16' E 103°51'0 0.0
2016-May-18 05:31N 01°16' E 103°51'0 0.0
2016-May-18 04:31N 01°16' E 103°51'  
Track history (hours):
 
Tides and Currents Weather Stations Pressure Air Temp Water Temp Dewpoint Dewpoint Depression Visibility Wind Speed Wind Dir Waves Ship Positions

Budapest Bridge

Last reported at 2016-May-28 03:33 UTC. Time now 2016-May-28 04:06 UTC.
Position N 34°59' E 139°33'.

Length 268 m; draft 12.2 m.

Type: Cargo ship. MMSI: 477434200.

Date/timePositionNaut miles runAvg speedWind from/ knotsBaromVisibWave heightAir tempDewpointWater temp
2016-May-28 03:33N 34°59' E 139°33'1010.3
2016-May-28 02:34N 34°52' E 139°23'  
2016-May-19 09:32N 01°16' E 104°14'1313.7
2016-May-19 08:33N 01°14' E 104°01'1212.2
2016-May-19 07:34N 01°12' E 103°49'5 5.3
2016-May-19 06:33N 01°17' E 103°46'0 0.0
2016-May-19 05:29N 01°17' E 103°46'0 0.0
2016-May-19 04:29N 01°17' E 103°46'0 0.0
2016-May-19 03:32N 01°17' E 103°46'0 0.0
2016-May-19 02:32N 01°17' E 103°46'0 0.0
2016-May-19 01:29N 01°17' E 103°46'0 0.0
2016-May-19 00:32N 01°17' E 103°46'0 0.0
2016-May-18 23:32N 01°17' E 103°46'0 0.0
2016-May-18 22:32N 01°17' E 103°46'0 0.0
2016-May-18 21:33N 01°17' E 103°46'0 0.0
2016-May-18 20:34N 01°17' E 103°46'0 0.0
2016-May-18 19:33N 01°17' E 103°46'0 0.0
2016-May-18 18:33N 01°17' E 103°46'1 0.8
2016-May-18 17:33N 01°16' E 103°46'7 6.8
2016-May-18 16:33N 01°14' E 103°52'2 1.8
2016-May-18 15:31N 01°16' E 103°51'0 0.0
2016-May-18 14:31N 01°16' E 103°51'0 0.0
2016-May-18 13:31N 01°16' E 103°51'0 0.0
2016-May-18 12:31N 01°16' E 103°51'0 0.0
2016-May-18 11:31N 01°16' E 103°51'0 0.0
2016-May-18 10:31N 01°16' E 103°51'0 0.0
2016-May-18 09:31N 01°16' E 103°51'0 0.0
2016-May-18 08:28N 01°16' E 103°51'0 0.0
2016-May-18 07:25N 01°16' E 103°51'0 0.0
2016-May-18 06:31N 01°16' E 103°51'0 0.0
2016-May-18 05:31N 01°16' E 103°51'0 0.0
2016-May-18 04:31N 01°16' E 103°51'  

Dump ship's entire track history